Anza Borrego Desert Research Center, California Weather observations

Data are for 10 minute period ending at time listed.
 Day   Time   Solar   Ave.   Ave.  Ave.  Vector  Max.   Baro.   Total    
  of    of     Rad.   Air    Rel.  Wind   Wind   Wind  Press.  Precip.   
Year   Day            Temp.  Hum.  Speed  Dir.   Gust                    
2015   (PST)  Kw/m2    F      %     mph   deg.    mph    mb.     in.     
-------------------------------------------------------------------------
  25    8:10   0.20   68.7    17    3.9   193     6.2   501.7    0.00 
  25    8:20   0.23   71.5    16    2.4   159     4.5   501.8    0.00 
  25    8:30   0.26   72.8    15    4.9   162     8.3   501.8    0.00 
  25    8:40   0.29   72.4    14    3.5   164     6.2   501.8    0.00 
  25    8:50   0.33   72.6    14    5.6   161     9.0   501.8    0.00 
  25    9:00   0.35   71.7    14    6.9   161     9.2   501.8    0.00 
  25    9:10   0.38   71.8    14    6.9   156     8.7   501.8    0.00 
  25    9:20   0.41   72.0    14    6.7   138     9.6   501.8    0.00 
  25    9:30   0.44   72.1    14    5.6   139     8.6   501.8    0.00 
  25    9:40   0.46   72.2    15    5.1   120     7.3   501.8    0.00 
  25    9:50   0.49   72.4    15    5.0   144     7.5   501.8    0.00 
  25   10:00   0.51   72.1    15    5.8   108     8.7   501.8    0.00 
  25   10:10   0.53   72.7    15    3.3   135     5.7   501.8    0.00 
  25   10:20   0.54   73.3    15    3.9   122     8.1   501.8    0.00 
  25   10:30   0.44   72.7    15    3.9   105     6.9   501.8    0.00 
  25   10:40   0.57   72.3    15    4.2   147    10.4   501.8    0.00 
  25   10:50   0.63   73.7    15    4.3   171     7.4   501.8    0.00 
  25   11:00   0.62   73.9    15    5.2   178     8.2   501.8    0.00 
  25   11:10   0.64   74.0    15    5.9   187     9.6   501.8    0.00 
  25   11:20   0.65   74.4    15    7.7   177    13.7   501.8    0.00 
  25   11:30   0.60   74.1    15    6.6   154    11.3   501.8    0.00 
  25   11:40   0.67   75.2    15    7.2   162    10.2   501.8    0.00 
  25   11:50   0.59   75.3    15    7.1   172    10.4   501.8    0.00 
  25   12:00   0.36   74.6    15    7.3   156    10.4   501.9    0.00 
  25   12:10   0.30   74.3    15    5.6   164     9.0   501.8    0.00 
  25   12:20   0.33   74.1    16    4.9   159     9.9   501.8    0.00 
  25   12:30   0.28   74.5    15    5.0   146     8.3   501.8    0.00 
  25   12:40   0.52   74.9    15    7.9   151    11.3   501.8    0.00 
  25   12:50   0.27   74.5    16    7.5   152    10.8   501.8    0.00 
  25   13:00   0.27   73.9    16    7.6   143    10.1   501.8    0.00 
  25   13:10   0.60   74.6    16    8.5   140    12.1   501.8    0.00 
  25   13:20   0.70   76.4    15    6.5   148     9.9   501.8    0.00 
  25   13:30   0.47   76.2    15    7.5   143    10.8   501.9    0.00 
  25   13:40   0.41   75.7    15    6.9   146    11.1   501.9    0.00 
  25   13:50   0.58   76.9    15    7.3   141    11.0   501.9    0.00 
  25   14:00   0.59   77.2    14    6.6   134    10.7   502.0    0.00 
  25   14:10   0.53   77.5    14    4.8   111     9.5   502.0    0.00 
  25   14:20   0.46   77.5    14    5.0   119     8.8   502.0    0.00 
  25   14:30   0.50   77.6    14    5.7   106    10.6   502.0    0.00 
  25   14:40   0.50   78.7    14    2.7   100     6.7   502.0    0.00 
  25   14:50   0.44   78.0    14    6.0   115     8.9   502.0    0.00 
  25   15:00   0.41   77.6    14    6.0   127    11.0   502.0    0.00 
  25   15:10   0.38   78.2    14    5.5   155    12.4   502.0    0.00 
  25   15:20   0.27   77.2    15    4.7   136     8.1   502.0    0.00 
  25   15:30   0.20   76.8    15    4.6   179     9.1   502.0    0.00 
  25   15:40   0.14   76.7    15    3.4   166     6.8   502.0    0.00 
  25   15:50   0.14   76.3    15    5.2   152     8.2   501.9    0.00 
  25   16:00   0.10   75.5    16    8.6   158    11.0   501.8    0.00 
  25   16:10   0.08   74.9    16    7.4   143    13.5   501.8    0.00 
  25   16:20   0.07   74.2    16    5.9   132     8.8   501.8    0.00 
  25   16:30   0.05   73.7    16    5.6   143     8.6   501.8    0.00 
  25   16:40   0.02   73.1    17    5.2   148     7.7   501.8    0.00 
  25   16:50   0.01   71.7    18    3.4   164     6.6   501.8    0.00 
  25   17:00   0.00   68.2    21    3.6   238     5.7   501.8    0.00 
  25   17:10   0.00   66.2    23    5.9   245     6.9   501.8    0.00 
  25   17:20   0.00   65.0    23    7.1   243     8.5   501.8    0.00 
  25   17:30   0.00   65.9    22    8.0   236     9.3   501.8    0.00 
  25   17:40   0.00   66.0    22    7.3   244     8.8   501.8    0.00 
  25   17:50   0.00   66.0    22    9.0   241    10.5   501.8    0.00 
  25   18:00   0.00   66.9    21    9.8   243    11.7   501.8    0.00 
  25   18:10   0.00   67.5    21   10.1   238    11.7   501.8    0.00 
  25   18:20   0.00   67.3    21    9.8   236    11.5   501.8    0.00 
  25   18:30   0.00   67.2    21   11.1   239    12.6   501.8    0.00 
  25   18:40   0.00   67.0    21   10.3   236    11.8   501.8    0.00 
  25   18:50   0.00   66.9    21   11.3   237    13.4   501.8    0.00 
  25   19:00   0.00   67.0    21   10.9   236    12.6   501.8    0.00 
  25   19:10   0.00   67.1    21   11.1   239    12.8   501.8    0.00 
  25   19:20   0.00   66.8    21    9.9   241    12.3   501.8    0.00 
  25   19:30   0.00   65.4    22    7.7   247    10.3   501.8    0.00 
  25   19:40   0.00   64.7    23    7.1   256     8.4   501.8    0.00 
  25   19:50   0.00   64.9    23    8.1   248     9.9   501.8    0.00 
  25   20:00   0.00   64.4    24    8.1   246    10.6   501.8    0.00 
  25   20:10   0.00   64.7    23    8.8   242    12.0   501.8    0.00 
  25   20:20   0.00   65.3    23   10.0   242    12.3   501.8    0.00 
  25   20:30   0.00   65.2    23   10.1   240    12.3   501.8    0.00 
  25   20:40   0.00   65.8    23   11.4   235    12.9   501.8    0.00 
  25   20:50   0.00   65.9    23    9.0   244    12.6   501.8    0.00 
  25   21:00   0.00   65.4    23    9.3   242    12.1   501.8    0.00 
  25   21:10   0.00   66.5    22   10.6   240    13.2   501.8    0.00 
  25   21:20   0.00   66.8    22   10.3   242    13.1   501.8    0.00 
  25   21:30   0.00   66.7    22   10.5   241    13.0   501.8    0.00 
  25   21:40   0.00   66.2    23    7.5   250    10.2   501.8    0.00 
  25   21:50   0.00   65.9    23    6.9   262     9.3   501.8    0.00 
  25   22:00   0.00   66.2    23    6.5   263     9.6   501.8    0.00 
  25   22:10   0.00   65.8    23    5.5   262     8.9   501.8    0.00 
  25   22:20   0.00   66.1    23    4.9   233     7.2   501.8    0.00 
  25   22:30   0.00   68.1    22    5.3   242     8.3   501.8    0.00 
  25   22:40   0.00   65.9    23    4.0   225     6.7   501.8    0.00 
  25   22:50   0.00   62.6    26    4.9   207     6.4   501.8    0.00 
  25   23:00   0.00   62.6    26    2.0   221     4.1   501.8    0.00 
  25   23:10   0.00   62.9    26    3.6   225     7.9   501.8    0.00 
  25   23:20   0.00   63.7    26    5.3   228     8.8   501.7    0.00 
  25   23:30   0.00   63.2    26    5.2   208     6.2   501.7    0.00 
  25   23:40   0.00   63.4    26    5.0   194     5.9   501.7    0.00 
  25   23:50   0.00   61.6    28    3.1   269     4.7   501.7    0.00 
  26    0:00   0.00   60.5    29    1.3   289     3.5   501.7    0.00 
  26    0:10   0.00   61.7    28    0.5   170     2.1   501.7    0.00 
  26    0:20   0.00   61.9    28    2.8    24     4.7   501.7    0.00 
  26    0:30   0.00   60.3    29    1.3   349     3.3   501.7    0.00 
  26    0:40   0.00   59.8    30    1.3   246     3.5   501.7    0.00 
  26    0:50   0.00   59.8    30    2.0   255     3.5   501.7    0.00 
  26    1:00   0.00   58.8    32    3.5   234     4.7   501.7    0.00 
  26    1:10   0.00   58.6    33    4.2   212     5.0   501.7    0.00 
  26    1:20   0.00   59.2    32    5.0   204     6.3   501.7    0.00 
  26    1:30   0.00   60.9    30    5.1   234     6.3   501.7    0.00 
  26    1:40   0.00   61.4    29    6.1   241     7.6   501.7    0.00 
  26    1:50   0.00   61.9    29    7.1   240     8.0   501.7    0.00 
  26    2:00   0.00   62.2    29    6.0   244     6.8   501.7    0.00 
  26    2:10   0.00   61.5    30    5.2   241     5.6   501.7    0.00 
  26    2:20   0.00   62.4    29    4.0   259     5.9   501.7    0.00 
  26    2:30   0.00   63.1    28    1.6   307     4.1   501.7    0.00 
  26    2:40   0.00   61.7    29    1.9   350     3.7   501.7    0.00 
  26    2:50   0.00   60.5    32    1.2   145     2.0   501.7    0.00 
  26    3:00   0.00   60.7    31    2.3   281     4.5   501.7    0.00 
  26    3:10   0.00   59.9    32    2.2   296     4.2   501.7    0.00 
  26    3:20   0.00   59.6    33    2.3   195     4.7   501.7    0.00 
  26    3:30   0.00   61.2    30    4.7   199     6.1   501.7    0.00 
  26    3:40   0.00   62.4    29    3.4   224     5.6   501.7    0.00 
  26    3:50   0.00   64.4    26    4.2   229     7.2   501.7    0.00 
  26    4:00   0.00   64.5    27    3.5   204     5.8   501.7    0.00 
  26    4:10   0.00   63.0    30    4.3   196     5.3   501.7    0.00 
  26    4:20   0.00   62.5    30    1.6   217     4.4   501.8    0.00 
  26    4:30   0.00   63.2    29    2.4   326     5.0   501.7    0.00 
  26    4:40   0.00   59.9    33    3.5   357     4.9   501.7    0.00 
  26    4:50   0.00   59.2    33    3.9   350     5.7   501.7    0.00 
  26    5:00   0.00   59.6    32    2.7   221     7.0   501.7    0.00 
  26    5:10   0.00   59.8    34    4.1   245     6.6   501.7    0.00 
  26    5:20   0.00   59.3    41    1.8   230     3.7   501.7    0.00 
  26    5:30   0.00   59.6    42    3.4   171     5.8   501.7    0.00 
  26    5:40   0.00   60.4    40    3.7   238     8.3   501.7    0.00 
  26    5:50   0.00   60.9    40    6.5   248     8.4   501.7    0.00 
  26    6:00   0.00   60.3    43    7.4   249     8.7   501.7    0.00 
  26    6:10   0.00   60.7    41    8.2   242    10.4   501.7    0.00 
  26    6:20   0.00   62.1    38    9.5   221    11.7   501.7    0.00 
  26    6:30   0.00   63.6    34    6.1   219    10.1   501.7    0.00 
  26    6:40   0.00   64.1    32    3.5   207     6.9   501.7    0.00 
  26    6:50   0.00   63.2    33    2.0    14     3.9   501.7    0.00 
  26    7:00   0.00   60.4    38    5.2   322     8.9   501.7    0.00 
  26    7:10   0.01   59.6    40    4.1    24     7.2   501.7    0.00 
  26    7:20   0.02   57.4    45    2.1   264     3.4   501.7    0.00 
  26    7:30   0.04   57.3    45    1.2   191     3.6   501.7    0.00 
  26    7:40   0.06   58.3    43    1.6   160     2.8   501.6    0.00 
  26    7:50   0.05   58.6    42    2.6   160     3.6   501.6    0.00 
  26    8:00   0.08   58.7    42    3.5   231     5.4   501.6    0.00 

Return to Anza Borrego Desert Research Center graphs page.


Western Regional Climate Center,wrcc@dri.edu